Time;durP1;ratioP1;P1;durP2;ratioP2;P2;SDS_P1;SDS_P2;PMS_P1;PMS_P2;Temp;Humidity;BMP_temperature;BMP_pressure;BME280_temperature;BME280_humidity;BME280_pressure;Samples;Min_cycle;Max_cycle;Signal;HPM_P1;HPM_P2
2023/08/03 00:01:26;;;;;;;11.05;7.30;;;;;;;28.11;47.28;100136.22;4932637;28;20307;-77
2023/08/03 00:03:53;;;;;;;10.55;6.35;;;;;;;27.96;47.09;100114.28;4931620;28;20471;-77
2023/08/03 00:06:20;;;;;;;12.68;6.10;;;;;;;28.04;47.18;100119.25;4934836;28;20494;-78
2023/08/03 00:08:51;;;;;;;15.50;6.10;;;;;;;28.08;47.08;100126.63;4907345;28;20055;-82
2023/08/03 00:11:22;;;;;;;15.93;6.60;;;;;;;27.87;47.52;100100.31;4926992;28;20042;-78
2023/08/03 00:13:49;;;;;;;12.38;6.45;;;;;;;27.98;47.77;100123.84;4925846;28;20054;-80
2023/08/03 00:16:21;;;;;;;11.68;6.35;;;;;;;27.95;48.86;100113.47;4924856;28;20050;-80
2023/08/03 00:18:48;;;;;;;21.38;7.05;;;;;;;27.95;48.43;100116.19;4929544;28;20409;-80
2023/08/03 00:21:15;;;;;;;12.15;7.15;;;;;;;27.96;48.35;100115.09;4915494;28;20050;-79
2023/08/03 00:23:42;;;;;;;12.32;6.05;;;;;;;28.00;48.41;100118.13;4936863;28;20136;-80
2023/08/03 00:26:08;;;;;;;13.18;6.70;;;;;;;27.90;48.31;100097.06;4955390;28;20050;-79
2023/08/03 00:28:35;;;;;;;13.63;6.75;;;;;;;27.87;48.49;100101.16;4945516;28;20058;-78
2023/08/03 00:31:02;;;;;;;13.57;6.60;;;;;;;27.87;48.67;100112.06;4934807;28;20119;-79
2023/08/03 00:33:29;;;;;;;16.35;6.43;;;;;;;27.76;48.29;100083.03;4942335;28;20133;-78
2023/08/03 00:35:56;;;;;;;14.82;6.45;;;;;;;27.88;49.42;100108.22;4931048;28;20501;-79
2023/08/03 00:38:23;;;;;;;12.45;6.25;;;;;;;27.65;48.99;100073.16;4949810;28;20462;-80
2023/08/03 00:40:53;;;;;;;15.27;7.20;;;;;;;27.79;49.09;100104.31;4944819;28;20116;-80
2023/08/03 00:43:20;;;;;;;13.40;6.57;;;;;;;27.79;49.34;100103.50;4942968;28;20364;-80
2023/08/03 00:45:46;;;;;;;21.25;7.30;;;;;;;27.22;50.02;100021.31;4921509;28;20318;-78
2023/08/03 00:48:13;;;;;;;13.07;6.85;;;;;;;27.53;49.71;100064.34;4926627;28;20061;-79
2023/08/03 00:50:43;;;;;;;12.13;6.65;;;;;;;27.58;49.78;100070.66;4934727;28;20452;-80
2023/08/03 00:53:10;;;;;;;11.48;6.15;;;;;;;27.67;49.99;100081.88;4986035;28;20131;-81
2023/08/03 00:55:40;;;;;;;16.85;7.18;;;;;;;27.75;50.00;100097.75;4959748;28;20073;-80
2023/08/03 00:58:08;;;;;;;20.70;6.83;;;;;;;27.75;49.80;100086.03;4941733;28;20129;-80
2023/08/03 01:00:35;;;;;;;11.75;6.25;;;;;;;27.18;49.50;99998.38;4948677;28;20219;-80
2023/08/03 01:03:02;;;;;;;10.05;6.38;;;;;;;27.64;50.08;100082.41;4947370;28;20108;-79
2023/08/03 01:05:32;;;;;;;11.38;6.50;;;;;;;27.31;50.65;100038.03;4943711;28;20042;-79
2023/08/03 01:07:59;;;;;;;14.00;6.85;;;;;;;27.51;51.84;100052.88;4952277;28;20513;-79
2023/08/03 01:10:28;;;;;;;14.68;7.22;;;;;;;27.81;50.84;100093.16;4929807;28;20400;-79
2023/08/03 01:12:58;;;;;;;12.05;7.03;;;;;;;27.64;50.31;100075.03;4963937;28;20133;-80
2023/08/03 01:15:25;;;;;;;9.38;6.18;;;;;;;27.83;51.55;100097.28;4953776;28;20050;-81
2023/08/03 01:17:56;;;;;;;14.20;6.32;;;;;;;27.79;51.54;100060.69;4915846;28;20136;-80
2023/08/03 01:20:32;;;;;;;13.52;6.93;;;;;;;27.89;50.05;100066.25;4914578;28;20245;-80
2023/08/03 01:23:01;;;;;;;17.98;6.55;;;;;;;27.77;50.17;100062.03;4938207;28;20056;-79
2023/08/03 01:25:33;;;;;;;17.55;7.00;;;;;;;27.66;50.75;100058.44;4899742;28;20046;-80
2023/08/03 01:28:04;;;;;;;17.60;8.60;;;;;;;27.39;50.97;100045.72;4947141;28;20909;-78
2023/08/03 01:30:31;;;;;;;11.80;7.18;;;;;;;27.17;51.23;100020.44;4953306;28;20125;-80
2023/08/03 01:33:02;;;;;;;13.25;6.95;;;;;;;27.42;51.03;100061.53;4958101;28;20133;-80
2023/08/03 01:35:29;;;;;;;17.30;8.15;;;;;;;27.42;51.61;100066.97;4973131;28;20112;-78
2023/08/03 01:37:56;;;;;;;12.90;6.50;;;;;;;27.47;51.46;100064.28;4961768;28;20148;-77
2023/08/03 01:40:23;;;;;;;18.20;6.78;;;;;;;27.32;51.19;100050.56;4972520;28;20525;-78
2023/08/03 01:42:50;;;;;;;13.95;6.97;;;;;;;27.52;51.27;100081.78;4949238;28;20042;-79
2023/08/03 01:45:16;;;;;;;16.77;7.68;;;;;;;27.43;51.55;100074.09;4954321;28;20065;-79
2023/08/03 01:47:43;;;;;;;13.27;6.80;;;;;;;27.16;51.67;100044.16;4945569;28;20446;-80
2023/08/03 01:50:10;;;;;;;13.75;6.75;;;;;;;27.23;51.84;100057.56;4928307;28;20449;-79
2023/08/03 01:52:36;;;;;;;9.10;6.57;;;;;;;27.20;52.28;100045.28;4954487;28;20045;-77
2023/08/03 01:55:03;;;;;;;19.98;7.10;;;;;;;27.35;51.03;100071.81;4952547;28;20048;-80
2023/08/03 01:57:30;;;;;;;17.52;7.00;;;;;;;27.42;51.89;100077.88;4923874;28;20145;-80
2023/08/03 01:59:57;;;;;;;12.70;6.43;;;;;;;27.42;51.21;100080.59;4910733;28;20050;-82
2023/08/03 02:02:23;;;;;;;15.02;6.57;;;;;;;27.45;51.01;100066.47;4935825;28;20054;-80
2023/08/03 02:04:50;;;;;;;13.45;6.45;;;;;;;27.36;50.78;100054.41;4941350;28;20457;-79
2023/08/03 02:07:38;;;;;;;10.05;6.57;;;;;;;27.67;52.05;100068.25;4964787;28;20043;-79
2023/08/03 02:10:07;;;;;;;12.07;6.90;;;;;;;27.61;50.33;100078.31;4944186;28;20498;-81
2023/08/03 02:12:34;;;;;;;15.75;6.93;;;;;;;27.54;49.95;100079.63;4954102;28;20143;-79
2023/08/03 02:15:06;;;;;;;17.70;6.63;;;;;;;27.44;49.92;100064.81;4948601;28;20375;-78
2023/08/03 02:17:33;;;;;;;14.63;7.95;;;;;;;27.20;50.27;100041.75;4969366;28;20046;-80
2023/08/03 02:20:00;;;;;;;17.17;7.10;;;;;;;27.31;50.34;100083.50;4939948;28;20452;-81
2023/08/03 02:22:26;;;;;;;20.30;7.15;;;;;;;27.26;50.89;100087.03;4944167;28;20238;-80
2023/08/03 02:24:53;;;;;;;14.55;6.80;;;;;;;26.98;51.15;100056.22;4937515;28;20296;-80
2023/08/03 02:27:20;;;;;;;10.88;6.68;;;;;;;26.66;51.45;100014.53;4935968;28;20227;-81
2023/08/03 02:29:50;;;;;;;12.05;7.00;;;;;;;26.84;51.44;100046.81;4932404;28;20488;-80
2023/08/03 02:32:24;;;;;;;17.15;7.15;;;;;;;26.75;51.52;100041.03;4942741;28;20054;-80
2023/08/03 02:34:55;;;;;;;15.27;7.10;;;;;;;26.62;51.81;100031.38;4951915;28;20125;-81
2023/08/03 02:37:27;;;;;;;15.05;6.90;;;;;;;26.82;51.98;100081.66;4925264;28;20080;-79
2023/08/03 02:39:57;;;;;;;18.67;7.00;;;;;;;26.81;51.99;100071.88;4930324;28;20057;-78
2023/08/03 02:42:28;;;;;;;17.60;7.65;;;;;;;26.91;52.00;100082.84;4925021;28;20487;-78
2023/08/03 02:44:58;;;;;;;15.40;7.50;;;;;;;26.72;51.99;100041.53;4889860;28;20065;-80
2023/08/03 02:47:28;;;;;;;15.80;7.78;;;;;;;26.88;52.14;100083.38;4899326;28;20450;-80
2023/08/03 02:49:55;;;;;;;20.25;7.65;;;;;;;26.88;52.16;100080.66;4905861;28;20509;-81
2023/08/03 02:52:26;;;;;;;13.80;7.40;;;;;;;26.83;51.75;100069.72;4942471;28;20057;-81
2023/08/03 02:54:54;;;;;;;14.75;6.90;;;;;;;26.83;52.29;100077.88;4944901;28;20160;-81
2023/08/03 02:57:21;;;;;;;18.23;7.35;;;;;;;26.66;52.41;100058.09;4932691;28;20073;-80
2023/08/03 02:59:50;;;;;;;12.95;6.95;;;;;;;26.64;52.57;100048.28;4956870;28;20054;-78
2023/08/03 03:02:19;;;;;;;;;;;;;;;26.68;53.38;100075.81;4942429;28;20575;-81
2023/08/03 03:04:45;;;;;;;28.80;8.13;;;;;;;26.40;53.72;100049.59;4928999;28;19932;-79
2023/08/03 03:07:12;;;;;;;22.95;8.00;;;;;;;26.44;53.83;100064.34;4937311;28;20391;-79
2023/08/03 03:09:40;;;;;;;12.10;7.20;;;;;;;26.38;53.99;100057.19;4934598;28;20512;-81
2023/08/03 03:12:07;;;;;;;19.75;7.90;;;;;;;26.39;54.29;100069.75;4949420;28;20057;-78
2023/08/03 03:14:36;;;;;;;16.35;7.00;;;;;;;25.86;54.57;99997.81;4936547;28;20406;-81
2023/08/03 03:17:10;;;;;;;16.38;7.93;;;;;;;26.32;54.82;100080.81;4909749;28;20127;-81
2023/08/03 03:19:43;;;;;;;18.58;7.45;;;;;;;26.14;54.84;100046.59;4905505;28;20479;-81
2023/08/03 03:22:20;;;;;;;13.65;7.18;;;;;;;26.20;54.69;100045.56;4904348;28;20424;-80
2023/08/03 03:24:56;;;;;;;23.67;8.48;;;;;;;26.51;54.63;100089.47;4926833;28;20045;-81
2023/08/03 03:27:34;;;;;;;18.00;7.43;;;;;;;26.47;54.73;100077.44;4914542;28;20442;-81
2023/08/03 03:30:08;;;;;;;22.83;8.38;;;;;;;26.54;54.96;100083.56;4908783;28;20243;-81
2023/08/03 03:32:45;;;;;;;18.00;7.63;;;;;;;26.55;54.92;100079.75;4889806;28;20348;-81
2023/08/03 03:35:12;;;;;;;16.55;8.45;;;;;;;26.59;54.90;100086.31;4940932;28;20490;-80
2023/08/03 03:37:39;;;;;;;16.40;6.93;;;;;;;26.67;55.22;100092.41;4953361;28;20418;-80
2023/08/03 03:40:08;;;;;;;13.90;7.43;;;;;;;26.74;54.73;100093.03;4951918;28;20047;-80
2023/08/03 03:42:35;;;;;;;11.48;6.93;;;;;;;26.22;55.06;100010.78;4928886;28;20051;-79
2023/08/03 03:45:02;;;;;;;20.30;8.82;;;;;;;26.44;54.97;100034.41;4932505;28;20394;-81
2023/08/03 03:47:29;;;;;;;15.18;7.63;;;;;;;26.57;55.33;100077.59;4942720;28;20450;-78
2023/08/03 03:49:56;;;;;;;16.27;8.75;;;;;;;26.58;55.56;100087.41;4959788;28;20046;-79
2023/08/03 03:52:22;;;;;;;16.02;7.60;;;;;;;26.54;55.87;100080.81;4955480;28;20179;-80
2023/08/03 03:54:49;;;;;;;16.73;7.38;;;;;;;26.50;55.93;100081.56;4938662;28;20050;-82
2023/08/03 03:57:19;;;;;;;13.60;8.13;;;;;;;26.32;56.05;100058.22;4897903;28;20207;-80
2023/08/03 03:59:50;;;;;;;15.48;7.18;;;;;;;26.46;55.91;100091.28;4885505;28;20724;-80
2023/08/03 04:02:21;;;;;;;19.38;8.05;;;;;;;26.26;56.31;100070.09;4945806;28;20067;-80
2023/08/03 04:04:53;;;;;;;13.50;7.28;;;;;;;26.42;56.99;100099.16;4948364;28;20042;-81
2023/08/03 04:07:33;;;;;;;15.95;7.50;;;;;;;26.57;56.18;100082.22;4946574;28;20470;-79
2023/08/03 04:10:02;;;;;;;13.90;7.38;;;;;;;26.71;56.34;100091.63;4963083;28;20494;-79
2023/08/03 04:12:32;;;;;;;11.48;6.70;;;;;;;26.79;55.77;100074.81;4969776;28;20054;-79
2023/08/03 04:14:59;;;;;;;10.70;6.60;;;;;;;26.66;55.94;100020.81;4937074;28;20417;-78
2023/08/03 04:17:26;;;;;;;22.75;8.52;;;;;;;26.81;54.86;100028.28;4961614;28;20046;-77
2023/08/03 04:19:52;;;;;;;16.83;7.85;;;;;;;27.00;54.80;100064.16;4983177;28;20843;-80
2023/08/03 04:22:19;;;;;;;15.20;7.30;;;;;;;26.92;55.02;100070.91;4942732;28;20485;-79
2023/08/03 04:24:46;;;;;;;17.80;7.55;;;;;;;26.92;54.83;100081.78;4945740;28;20434;-79
2023/08/03 04:27:13;;;;;;;16.67;7.53;;;;;;;26.62;55.25;100057.78;4943356;28;20423;-80
2023/08/03 04:29:43;;;;;;;17.20;7.67;;;;;;;26.77;55.58;100095.22;4943239;28;20470;-80
2023/08/03 04:32:10;;;;;;;16.30;7.28;;;;;;;26.75;56.01;100095.50;4938768;28;20061;-80
2023/08/03 04:34:37;;;;;;;17.85;8.05;;;;;;;26.34;56.10;100050.63;4954073;28;20554;-79
2023/08/03 04:37:04;;;;;;;16.27;8.02;;;;;;;26.55;56.75;100093.34;4956038;28;20065;-80
2023/08/03 04:39:31;;;;;;;20.67;7.90;;;;;;;26.33;57.01;100057.94;4949436;28;20046;-79
2023/08/03 04:41:58;;;;;;;14.38;7.57;;;;;;;26.55;56.86;100066.13;4939993;28;20086;-77
2023/08/03 04:44:24;;;;;;;15.50;8.80;;;;;;;26.56;56.58;100065.06;4965829;28;20493;-80
2023/08/03 04:46:53;;;;;;;15.52;7.60;;;;;;;26.56;56.49;100062.34;4963784;28;20056;-82
2023/08/03 04:49:22;;;;;;;10.35;7.53;;;;;;;26.76;56.24;100086.25;4965193;28;20497;-79
2023/08/03 04:51:52;;;;;;;19.48;8.00;;;;;;;26.53;55.95;100038.38;4985912;28;20046;-77
2023/08/03 04:54:20;;;;;;;15.73;7.70;;;;;;;26.79;55.58;100084.91;4977014;28;20050;-79
2023/08/03 04:56:47;;;;;;;16.60;7.93;;;;;;;26.84;56.67;100098.56;4975197;28;20153;-79
2023/08/03 04:59:14;;;;;;;15.40;8.05;;;;;;;26.81;56.76;100109.97;4952771;28;20133;-80
2023/08/03 05:01:44;;;;;;;21.55;7.50;;;;;;;26.71;56.47;100098.97;4944067;28;20612;-81
2023/08/03 05:04:18;;;;;;;15.73;7.57;;;;;;;26.67;56.90;100085.03;4948099;28;20081;-80
2023/08/03 05:06:45;;;;;;;17.80;8.88;;;;;;;26.89;56.58;100108.69;4937611;28;20050;-81
2023/08/03 05:09:12;;;;;;;15.20;7.22;;;;;;;26.99;56.79;100109.63;4949438;28;20076;-81
2023/08/03 05:11:39;;;;;;;18.23;7.25;;;;;;;27.06;56.16;100118.44;4970322;28;20104;-79
2023/08/03 05:14:06;;;;;;;12.57;7.05;;;;;;;26.50;56.73;100011.59;4966598;28;20482;-79
2023/08/03 05:16:35;;;;;;;9.23;6.35;;;;;;;27.28;56.42;100104.78;4954326;28;20529;-79
2023/08/03 05:19:03;;;;;;;20.02;7.85;;;;;;;27.35;56.25;100099.06;4947316;28;20483;-81
2023/08/03 05:21:29;;;;;;;17.95;7.63;;;;;;;27.48;56.29;100109.56;4978103;28;20054;-82
2023/08/03 05:23:56;;;;;;;17.92;7.72;;;;;;;27.65;55.84;100114.88;4960787;28;20533;-80
2023/08/03 05:26:23;;;;;;;10.40;6.25;;;;;;;27.78;55.47;100096.41;4983643;28;20081;-79
2023/08/03 05:28:50;;;;;;;11.40;6.90;;;;;;;27.98;54.35;100096.56;4947493;28;20054;-79
2023/08/03 05:31:16;;;;;;;17.20;8.50;;;;;;;27.56;53.97;100034.66;4948769;28;20038;-81
2023/08/03 05:33:43;;;;;;;14.73;7.45;;;;;;;27.91;54.44;100120.53;4955073;28;20101;-81
2023/08/03 05:36:10;;;;;;;25.45;8.63;;;;;;;27.82;54.06;100125.66;4969130;28;20053;-81
2023/08/03 05:38:37;;;;;;;15.25;7.10;;;;;;;27.86;54.23;100129.47;4959417;28;20126;-80
2023/08/03 05:41:12;;;;;;;10.90;6.78;;;;;;;28.23;53.79;100127.78;4927205;28;20146;-82
2023/08/03 05:43:39;;;;;;;14.68;7.40;;;;;;;28.09;54.12;100119.28;4929410;28;20522;-80
2023/08/03 05:46:12;;;;;;;17.08;7.88;;;;;;;28.03;53.84;100132.06;4943039;28;20128;-81
2023/08/03 05:48:43;;;;;;;17.48;8.23;;;;;;;27.95;53.38;100112.66;4965462;28;20087;-81
2023/08/03 05:51:18;;;;;;;22.13;7.38;;;;;;;27.85;53.48;100110.66;4962972;28;20675;-82
2023/08/03 05:53:48;;;;;;;28.60;8.57;;;;;;;27.91;54.36;100117.78;4942507;28;20129;-80
2023/08/03 05:56:15;;;;;;;13.75;6.82;;;;;;;27.66;54.66;100091.16;4933924;28;20359;-81
2023/08/03 05:58:41;;;;;;;24.70;8.27;;;;;;;27.62;54.12;100065.47;4950430;28;20327;-81
2023/08/03 06:01:12;;;;;;;17.50;8.18;;;;;;;28.00;53.66;100129.03;4959143;28;20091;-81
2023/08/03 06:03:42;;;;;;;;;;;;;;;28.36;54.33;100129.25;4950609;28;20407;-81
2023/08/03 06:06:10;;;;;;;13.45;6.70;;;;;;;28.35;53.12;100128.41;4944174;28;19922;-79
2023/08/03 06:08:46;;;;;;;14.82;6.47;;;;;;;28.60;53.25;100125.00;4930399;28;20042;-81
2023/08/03 06:11:16;;;;;;;14.57;7.72;;;;;;;28.41;52.44;100127.34;4979845;28;20136;-80
2023/08/03 06:13:53;;;;;;;17.35;7.13;;;;;;;28.18;52.51;100112.25;4952994;28;20145;-80
2023/08/03 06:16:21;;;;;;;12.98;7.50;;;;;;;28.33;52.76;100087.75;4949072;28;20428;-80
2023/08/03 06:18:54;;;;;;;12.63;6.80;;;;;;;28.67;53.02;100125.56;4940822;28;20051;-79
2023/08/03 06:21:23;;;;;;;17.30;7.60;;;;;;;28.51;52.00;100094.66;4952916;28;20097;-80
2023/08/03 06:23:52;;;;;;;14.48;7.13;;;;;;;28.72;52.49;100111.13;4964284;28;20550;-79
2023/08/03 06:26:21;;;;;;;13.85;7.90;;;;;;;28.91;51.92;100128.66;4978560;28;20387;-79
2023/08/03 06:28:53;;;;;;;14.63;8.10;;;;;;;28.62;51.62;100073.69;4967990;28;20054;-80
2023/08/03 06:31:34;;;;;;;17.08;7.75;;;;;;;28.85;52.35;100137.09;4985967;28;20412;-79
2023/08/03 06:34:02;;;;;;;15.73;8.25;;;;;;;28.84;52.14;100138.19;4958395;28;20061;-80
2023/08/03 06:36:35;;;;;;;10.68;7.18;;;;;;;28.71;52.04;100132.13;4981181;28;20203;-81
2023/08/03 06:39:03;;;;;;;16.20;7.57;;;;;;;28.80;51.60;100145.28;4960729;28;20050;-81
2023/08/03 06:41:30;;;;;;;18.98;8.07;;;;;;;28.71;52.17;100132.13;4967748;28;20056;-81
2023/08/03 06:44:01;;;;;;;21.60;8.82;;;;;;;28.43;52.11;100097.88;4933562;28;20058;-78
2023/08/03 06:46:29;;;;;;;21.42;8.35;;;;;;;28.52;52.94;100104.50;4972281;28;20140;-79
2023/08/03 06:48:56;;;;;;;19.58;8.13;;;;;;;28.70;53.16;100126.94;4987921;28;20127;-81
2023/08/03 06:51:26;;;;;;;15.52;6.78;;;;;;;28.49;52.84;100077.72;4974084;28;20405;-79
2023/08/03 06:53:53;;;;;;;16.70;9.32;;;;;;;28.79;52.94;100113.56;4971408;28;20409;-79
2023/08/03 06:56:20;;;;;;;17.98;7.38;;;;;;;29.13;52.56;100133.91;4978865;28;20058;-79
2023/08/03 06:58:52;;;;;;;13.95;7.20;;;;;;;28.92;52.21;100080.28;4960740;28;20405;-81
2023/08/03 07:01:19;;;;;;;16.05;7.82;;;;;;;29.27;52.72;100119.69;4959344;28;20092;-78
2023/08/03 07:03:46;;;;;;;22.90;7.88;;;;;;;29.22;52.79;100133.38;4951562;28;20057;-79
2023/08/03 07:06:21;;;;;;;19.10;7.55;;;;;;;29.43;52.21;100140.50;4946044;28;20466;-80
2023/08/03 07:09:01;;;;;;;16.75;7.63;;;;;;;28.95;51.44;100014.97;4901855;28;20042;-82
2023/08/03 07:11:41;;;;;;;;;;;;;;;29.66;51.78;100135.56;4902903;28;20052;-80
2023/08/03 07:14:11;;;;;;;14.27;7.22;;;;;;;29.53;51.24;100077.59;4911920;28;19921;-81
2023/08/03 07:16:47;;;;;;;17.52;6.60;;;;;;;29.57;51.70;100083.34;4926980;28;20417;-80
2023/08/03 07:19:31;;;;;;;13.32;7.00;;;;;;;29.82;51.14;100105.22;4905843;28;20054;-81
2023/08/03 07:22:11;;;;;;;9.82;6.25;;;;;;;29.69;51.55;100108.53;4936530;28;20054;-81
2023/08/03 07:24:38;;;;;;;9.98;5.53;;;;;;;29.65;51.76;100092.91;4956407;28;20046;-80
2023/08/03 07:27:10;;;;;;;9.60;5.80;;;;;;;29.96;51.08;100118.31;4946157;28;20050;-82
2023/08/03 07:29:37;;;;;;;10.70;6.10;;;;;;;29.92;51.25;100123.53;4942945;28;20060;-79
2023/08/03 07:32:04;;;;;;;9.05;6.25;;;;;;;29.99;50.81;100107.63;4937719;28;20054;-79
2023/08/03 07:34:31;;;;;;;9.05;6.25;;;;;;;29.95;50.50;100090.13;4968323;28;20054;-80
2023/08/03 07:37:05;;;;;;;10.25;6.13;;;;;;;30.05;50.49;100113.91;4955757;28;20069;-81
2023/08/03 07:39:51;;;;;;;9.60;6.47;;;;;;;29.94;50.62;100104.91;4927044;28;20282;-81
2023/08/03 07:42:24;;;;;;;8.35;5.88;;;;;;;29.77;50.65;100079.78;4931453;28;20061;-81
2023/08/03 07:44:56;;;;;;;12.68;6.78;;;;;;;29.95;50.69;100122.97;4930856;28;20402;-80
2023/08/03 07:47:23;;;;;;;12.30;6.50;;;;;;;29.84;50.56;100098.66;4960047;28;20058;-79
2023/08/03 07:49:54;;;;;;;14.10;7.28;;;;;;;30.16;49.77;100117.44;4931871;28;20136;-75
2023/08/03 07:52:26;;;;;;;9.52;6.60;;;;;;;29.91;50.11;100086.31;4950692;28;20046;-78
2023/08/03 07:54:56;;;;;;;19.20;7.53;;;;;;;30.09;49.71;100100.50;4975021;28;20054;-81
2023/08/03 07:57:23;;;;;;;13.48;6.80;;;;;;;30.22;49.74;100116.31;4951876;28;20064;-82
2023/08/03 07:59:50;;;;;;;11.52;6.35;;;;;;;30.21;49.87;100128.38;4968562;28;20229;-80
2023/08/03 08:02:18;;;;;;;12.60;6.80;;;;;;;30.24;49.71;100116.88;4965279;28;20065;-79
2023/08/03 08:04:50;;;;;;;10.77;6.53;;;;;;;30.23;49.34;100107.84;4971037;28;20394;-78
2023/08/03 08:07:18;;;;;;;12.88;7.60;;;;;;;30.24;49.81;100131.41;4961453;28;20053;-77
2023/08/03 08:09:45;;;;;;;11.15;6.50;;;;;;;30.26;49.54;100124.84;4970276;28;20104;-78
2023/08/03 08:12:11;;;;;;;9.82;7.03;;;;;;;30.15;49.79;100124.03;4937941;28;20050;-80
2023/08/03 08:14:38;;;;;;;13.18;7.60;;;;;;;30.31;49.69;100133.03;4931771;28;20058;-77
2023/08/03 08:17:06;;;;;;;13.13;7.47;;;;;;;30.07;49.49;100091.75;4950114;28;20077;-79
2023/08/03 08:19:43;;;;;;;9.77;6.95;;;;;;;30.35;49.37;100118.50;4946188;28;20146;-78
2023/08/03 08:22:14;;;;;;;15.23;8.30;;;;;;;30.44;49.07;100119.56;4934331;28;20141;-80
2023/08/03 08:24:43;;;;;;;11.88;7.13;;;;;;;30.35;49.04;100093.88;4980240;28;20136;-77
2023/08/03 08:27:11;;;;;;;12.95;7.57;;;;;;;30.20;49.26;100080.22;4963252;28;20140;-78
2023/08/03 08:29:42;;;;;;;11.50;7.10;;;;;;;30.44;49.26;100125.06;4979337;28;20485;-78
2023/08/03 08:32:11;;;;;;;12.38;7.53;;;;;;;30.48;49.04;100119.00;4950794;28;20054;-79
2023/08/03 08:34:43;;;;;;;18.00;7.22;;;;;;;30.47;48.84;100109.16;4960765;28;20084;-83
2023/08/03 08:37:09;;;;;;;11.77;6.90;;;;;;;30.45;48.59;100102.03;4946064;28;20411;-79
2023/08/03 08:39:42;;;;;;;15.05;7.03;;;;;;;30.01;48.38;100026.09;4920847;28;20314;-82
2023/08/03 08:42:13;;;;;;;12.27;7.47;;;;;;;30.37;48.75;100088.94;4877751;28;20693;-79
2023/08/03 08:44:45;;;;;;;13.85;7.25;;;;;;;30.51;48.82;100112.97;4899492;28;20464;-81
2023/08/03 08:47:26;;;;;;;11.82;7.25;;;;;;;30.62;48.55;100115.38;4911657;28;20061;-78
2023/08/03 08:50:06;;;;;;;;;;;;;;;30.73;48.30;100121.63;4911319;28;20046;-81
2023/08/03 08:52:51;;;;;;;15.98;7.30;;;;;;;30.51;47.71;100069.94;4908271;28;20231;-79
2023/08/03 08:55:34;;;;;;;10.80;7.25;;;;;;;30.77;48.05;100125.44;4898452;28;20279;-81
2023/08/03 08:58:20;;;;;;;11.77;7.18;;;;;;;30.83;47.45;100118.03;4892870;28;20081;-82
2023/08/03 09:01:05;;;;;;;12.32;6.72;;;;;;;30.97;47.63;100135.47;4911247;28;20594;-80
2023/08/03 09:03:56;;;;;;;8.07;6.32;;;;;;;30.81;47.16;100101.03;4893837;28;20396;-80
2023/08/03 09:06:49;;;;;;;12.45;6.28;;;;;;;30.82;47.42;100111.69;4890436;28;20803;-81
2023/08/03 09:09:41;;;;;;;13.85;7.35;;;;;;;30.83;47.18;100115.31;4915088;28;20089;-79
2023/08/03 09:12:27;;;;;;;12.05;7.15;;;;;;;30.79;47.48;100104.03;4917168;28;20213;-79
2023/08/03 09:14:55;;;;;;;10.27;6.35;;;;;;;30.84;47.79;100111.44;4971839;28;20054;-79
2023/08/03 09:17:25;;;;;;;13.57;7.38;;;;;;;30.51;47.73;100069.13;4939010;28;20050;-79
2023/08/03 09:19:53;;;;;;;19.55;7.50;;;;;;;30.64;47.96;100093.19;4956356;28;20069;-81
2023/08/03 09:22:24;;;;;;;16.20;7.15;;;;;;;30.64;47.83;100090.44;4948518;28;20433;-80
2023/08/03 09:25:06;;;;;;;16.60;8.15;;;;;;;30.77;47.79;100114.47;4948511;28;20126;-82
2023/08/03 09:27:51;;;;;;;15.13;7.72;;;;;;;30.79;47.32;100097.75;4915794;28;20046;-82
2023/08/03 09:30:49;;;;;;;12.15;7.18;;;;;;;31.07;47.03;100115.41;4904677;28;20059;-82
2023/08/03 09:33:26;;;;;;;9.80;6.53;;;;;;;31.16;47.08;100121.91;4892902;28;20049;-82
2023/08/03 09:36:11;;;;;;;13.25;6.88;;;;;;;30.43;46.80;100002.09;4921503;28;20058;-83
2023/08/03 09:38:51;;;;;;;16.92;7.78;;;;;;;30.87;46.56;100078.81;4916971;28;20051;-80
2023/08/03 09:41:40;;;;;;;21.50;7.80;;;;;;;31.06;46.69;100113.78;4940195;28;20165;-81
2023/08/03 09:44:16;;;;;;;11.38;6.95;;;;;;;31.20;46.83;100128.47;4918152;28;20479;-79
2023/08/03 09:46:47;;;;;;;14.85;7.38;;;;;;;31.30;46.41;100139.38;4955725;28;20061;-83
2023/08/03 09:49:14;;;;;;;;;;;;;;;31.47;46.83;100141.72;4936224;28;20082;-80
2023/08/03 09:51:44;;;;;;;10.65;6.55;;;;;;;30.88;46.73;100068.69;4934369;28;19921;-79
2023/08/03 09:54:22;;;;;;;12.38;6.72;;;;;;;31.20;46.91;100141.38;4939738;28;20085;-82
2023/08/03 09:56:52;;;;;;;10.23;7.20;;;;;;;31.04;46.60;100094.03;4945223;28;20499;-81
2023/08/03 09:59:32;;;;;;;12.55;6.22;;;;;;;31.39;46.12;100144.25;4941545;28;20053;-80
2023/08/03 10:02:05;;;;;;;13.30;7.22;;;;;;;31.41;46.26;100128.34;4916399;28;20072;-82
2023/08/03 10:04:39;;;;;;;11.48;6.85;;;;;;;31.20;46.58;100120.25;4942407;28;20058;-80
2023/08/03 10:07:12;;;;;;;10.98;6.97;;;;;;;30.88;46.51;100091.41;4957856;28;20050;-82
2023/08/03 10:09:50;;;;;;;13.95;7.57;;;;;;;31.09;47.26;100151.56;4944096;28;20528;-80
2023/08/03 10:12:23;;;;;;;12.18;8.13;;;;;;;30.92;47.16;100131.94;4936217;28;20051;-83
2023/08/03 10:14:53;;;;;;;16.30;6.63;;;;;;;30.94;47.07;100116.03;4948460;28;20066;-81
2023/08/03 10:17:25;;;;;;;12.35;7.82;;;;;;;31.15;47.18;100135.94;4952250;28;20523;-80
2023/08/03 10:19:53;;;;;;;14.65;7.07;;;;;;;31.05;47.06;100107.47;4966273;28;20054;-81
2023/08/03 10:22:23;;;;;;;14.32;7.78;;;;;;;31.24;46.96;100146.00;4963637;28;20549;-81
2023/08/03 10:25:21;;;;;;;11.70;6.65;;;;;;;31.20;47.35;100152.34;4927109;28;20047;-79
2023/08/03 10:28:11;;;;;;;10.80;6.95;;;;;;;31.42;46.65;100143.72;4912727;28;20086;-81
2023/08/03 10:31:25;;;;;;;13.05;7.45;;;;;;;31.57;46.37;100143.56;4906664;28;20581;-80
2023/08/03 10:33:59;;;;;;;15.18;7.35;;;;;;;31.84;45.99;100144.97;4886854;28;20073;-82
2023/08/03 10:36:47;;;;;;;10.60;7.00;;;;;;;31.86;45.93;100145.50;4873663;28;20657;-81
2023/08/03 10:39:53;;;;;;;11.77;6.47;;;;;;;31.91;45.97;100140.78;4879960;28;20354;-82
2023/08/03 10:42:35;;;;;;;16.35;7.55;;;;;;;31.64;46.09;100107.59;4888714;28;20089;-80
2023/08/03 10:45:23;;;;;;;11.10;7.70;;;;;;;31.69;46.05;100154.97;4928637;28;20506;-80
2023/08/03 10:47:51;;;;;;;11.18;7.20;;;;;;;31.51;46.45;100150.22;4939552;28;20398;-79
2023/08/03 10:50:19;;;;;;;12.55;7.28;;;;;;;31.46;46.30;100128.31;4947137;28;20057;-79
2023/08/03 10:52:46;;;;;;;12.52;7.30;;;;;;;31.19;46.16;100107.66;4939123;28;20620;-79
2023/08/03 10:55:26;;;;;;;13.65;7.40;;;;;;;31.47;46.34;100135.44;4947864;28;20133;-79
2023/08/03 10:57:56;;;;;;;11.77;6.93;;;;;;;31.37;46.17;100162.91;4910556;28;20482;-81
2023/08/03 11:00:23;;;;;;;13.57;8.05;;;;;;;31.06;46.27;100124.75;4925838;28;20046;-82
2023/08/03 11:02:51;;;;;;;18.50;7.55;;;;;;;31.27;45.96;100164.63;4959991;28;20070;-79
2023/08/03 11:05:23;;;;;;;13.98;7.28;;;;;;;31.21;46.97;100154.78;4951753;28;20076;-81
2023/08/03 11:07:50;;;;;;;11.27;7.63;;;;;;;31.15;46.52;100128.50;4956877;28;20246;-81
2023/08/03 11:10:17;;;;;;;10.07;6.60;;;;;;;31.22;46.92;100161.09;4968409;28;20372;-80
2023/08/03 11:12:44;;;;;;;15.85;7.68;;;;;;;30.96;46.45;100100.97;4978687;28;20398;-79
2023/08/03 11:15:17;;;;;;;10.13;6.47;;;;;;;31.18;45.96;100138.91;4987344;28;20504;-79
2023/08/03 11:17:49;;;;;;;10.98;7.82;;;;;;;31.35;46.16;100137.69;4964585;28;20050;-81
2023/08/03 11:20:18;;;;;;;9.40;6.65;;;;;;;31.24;46.29;100135.03;4943783;28;20425;-81
2023/08/03 11:22:46;;;;;;;10.40;6.63;;;;;;;31.33;46.30;100145.38;4964304;28;20465;-80
2023/08/03 11:25:17;;;;;;;12.52;6.80;;;;;;;31.20;46.03;100147.66;4982361;28;20462;-80
2023/08/03 11:27:44;;;;;;;12.00;7.38;;;;;;;31.12;46.79;100117.28;4963422;28;20046;-81
2023/08/03 11:30:11;;;;;;;11.77;7.70;;;;;;;31.27;46.66;100150.91;4956003;28;20057;-79
2023/08/03 11:32:42;;;;;;;10.98;6.93;;;;;;;31.21;46.95;100154.78;4965436;28;20057;-79
2023/08/03 11:35:15;;;;;;;14.73;7.22;;;;;;;31.29;46.29;100145.97;4933549;28;20046;-81
2023/08/03 11:37:43;;;;;;;11.80;7.45;;;;;;;31.45;46.56;100148.59;4960237;28;20498;-80